createdAt,value
2022-10-22T00:00:12.072Z,1.10
2022-10-22T00:02:39.131Z,0.95
2022-10-22T00:05:06.652Z,1.00
2022-10-22T00:07:33.642Z,0.90
2022-10-22T00:10:00.811Z,1.10
2022-10-22T00:12:28.000Z,0.88
2022-10-22T00:14:54.845Z,0.90
2022-10-22T00:17:22.639Z,1.00
2022-10-22T00:19:49.533Z,0.90
2022-10-22T00:22:16.965Z,0.80
2022-10-22T00:24:44.029Z,0.90
2022-10-22T00:27:12.844Z,0.80
2022-10-22T00:29:39.932Z,0.63
2022-10-22T00:32:08.281Z,0.90
2022-10-22T00:34:35.664Z,0.80
2022-10-22T00:37:02.515Z,0.63
2022-10-22T00:39:29.916Z,1.10
2022-10-22T00:41:58.404Z,0.85
2022-10-22T00:45:02.896Z,0.80
2022-10-22T00:47:44.429Z,0.70
2022-10-22T00:50:43.985Z,0.80
2022-10-22T00:53:20.077Z,1.00
2022-10-22T00:55:51.346Z,1.20
2022-10-22T00:58:21.236Z,1.40
2022-10-22T01:00:48.714Z,1.20
2022-10-22T01:03:15.661Z,1.15
2022-10-22T01:05:57.750Z,1.83
2022-10-22T01:08:39.467Z,1.00
2022-10-22T01:11:32.099Z,1.05
2022-10-22T01:14:14.929Z,0.80
2022-10-22T01:16:55.322Z,1.00
2022-10-22T01:19:59.812Z,1.00
2022-10-22T01:22:42.142Z,1.10
2022-10-22T01:25:50.819Z,1.10
2022-10-22T01:28:41.830Z,1.10
2022-10-22T01:31:10.999Z,0.85
2022-10-22T01:33:40.188Z,1.08
2022-10-22T01:36:08.357Z,0.68
2022-10-22T01:38:36.434Z,0.85
2022-10-22T01:41:03.770Z,0.77
2022-10-22T01:43:30.537Z,0.73
2022-10-22T01:46:03.179Z,0.77
2022-10-22T01:49:18.031Z,0.77
2022-10-22T01:52:05.046Z,0.73
2022-10-22T01:55:07.062Z,0.40
2022-10-22T01:58:17.137Z,0.60
2022-10-22T02:01:03.893Z,0.40
2022-10-22T02:04:00.468Z,0.43
2022-10-22T02:06:30.711Z,0.45
2022-10-22T02:08:59.320Z,0.60
2022-10-22T02:11:26.894Z,0.55
2022-10-22T02:13:58.842Z,0.50
2022-10-22T02:16:35.423Z,0.50
2022-10-22T02:19:10.639Z,0.50
2022-10-22T02:21:37.638Z,0.40
2022-10-22T02:24:05.553Z,0.60
2022-10-22T02:26:54.813Z,0.40
2022-10-22T02:29:53.482Z,0.57
2022-10-22T02:32:25.973Z,0.50
2022-10-22T02:34:54.287Z,0.50
2022-10-22T02:37:22.327Z,0.45
2022-10-22T02:39:49.694Z,0.52
2022-10-22T02:42:16.503Z,0.40
2022-10-22T02:44:43.965Z,0.60
2022-10-22T02:47:10.766Z,0.60
2022-10-22T02:49:37.600Z,0.43
2022-10-22T02:52:04.578Z,0.52
2022-10-22T02:54:31.507Z,0.50
2022-10-22T02:56:58.407Z,0.60
2022-10-22T02:59:25.368Z,0.32
2022-10-22T03:01:52.194Z,0.50
2022-10-22T03:04:18.986Z,0.52
2022-10-22T03:06:48.604Z,0.50
2022-10-22T03:09:15.465Z,0.60
2022-10-22T03:11:42.311Z,0.60
2022-10-22T03:14:09.556Z,0.50
2022-10-22T03:16:36.414Z,0.40
2022-10-22T03:19:03.456Z,0.65
2022-10-22T03:21:49.373Z,0.70
2022-10-22T03:24:39.070Z,0.60
2022-10-22T03:27:05.904Z,0.60
2022-10-22T03:29:37.276Z,0.40
2022-10-22T03:32:04.307Z,0.50
2022-10-22T03:34:31.141Z,0.50
2022-10-22T03:37:01.181Z,0.50
2022-10-22T03:39:32.221Z,0.52
2022-10-22T03:41:59.412Z,0.40
2022-10-22T03:44:26.961Z,0.50
2022-10-22T03:46:57.405Z,0.50
2022-10-22T03:49:27.004Z,0.50
2022-10-22T03:51:54.048Z,0.43
2022-10-22T03:54:20.886Z,0.50
2022-10-22T03:56:47.823Z,0.50
2022-10-22T03:59:15.068Z,0.60
2022-10-22T04:01:42.204Z,0.40
2022-10-22T04:04:09.246Z,0.60
2022-10-22T04:06:36.016Z,0.40
2022-10-22T04:09:03.081Z,0.50
2022-10-22T04:11:29.986Z,0.50
2022-10-22T04:13:56.864Z,0.60
2022-10-22T04:16:26.215Z,0.50
2022-10-22T04:18:55.509Z,0.77
2022-10-22T04:21:23.030Z,0.50
2022-10-22T04:23:52.857Z,0.52
2022-10-22T04:26:21.131Z,0.40
2022-10-22T04:28:50.221Z,0.43
2022-10-22T04:31:22.582Z,0.98
2022-10-22T04:33:59.473Z,0.63
2022-10-22T04:36:28.298Z,0.47
2022-10-22T04:38:59.603Z,0.50
2022-10-22T04:41:38.951Z,0.47
2022-10-22T04:44:09.897Z,0.40
2022-10-22T04:46:40.390Z,0.50
2022-10-22T04:49:07.319Z,0.70
2022-10-22T04:51:34.216Z,0.40
2022-10-22T04:54:00.991Z,0.50
2022-10-22T04:56:31.355Z,0.40
2022-10-22T04:59:02.115Z,0.47
2022-10-22T05:01:32.102Z,0.60
2022-10-22T05:04:02.061Z,0.30
2022-10-22T05:06:30.743Z,0.40
2022-10-22T05:09:03.588Z,0.40
2022-10-22T05:14:06.203Z,0.47
2022-10-22T05:16:34.338Z,0.50
2022-10-22T05:19:02.672Z,0.50
2022-10-22T05:21:29.807Z,0.30
2022-10-22T05:23:59.972Z,0.30
2022-10-22T05:26:28.719Z,0.40
2022-10-22T05:28:56.014Z,0.50
2022-10-22T05:31:23.190Z,0.40
2022-10-22T05:33:50.059Z,0.30
2022-10-22T05:36:21.189Z,0.40
2022-10-22T05:38:48.308Z,0.30
2022-10-22T05:41:21.764Z,0.40
2022-10-22T05:43:49.229Z,0.80
2022-10-22T05:46:23.208Z,0.40
2022-10-22T05:48:55.991Z,0.47
2022-10-22T05:51:24.621Z,0.47
2022-10-22T05:53:57.550Z,0.40
2022-10-22T05:58:52.471Z,0.40
2022-10-22T06:01:39.585Z,0.40
2022-10-22T06:04:10.481Z,0.50
2022-10-22T06:06:45.331Z,0.40
2022-10-22T06:09:32.757Z,0.38
2022-10-22T06:12:00.238Z,0.40
2022-10-22T06:14:27.831Z,0.40
2022-10-22T06:16:55.651Z,0.50
2022-10-22T06:19:26.714Z,0.93
2022-10-22T06:21:54.034Z,0.40
2022-10-22T06:24:20.954Z,0.50
2022-10-22T06:26:51.594Z,0.80
2022-10-22T06:29:18.663Z,0.68
2022-10-22T06:31:45.713Z,0.50
2022-10-22T06:34:14.672Z,0.40
2022-10-22T06:36:44.377Z,0.60
2022-10-22T06:39:17.517Z,0.40
2022-10-22T06:41:44.988Z,0.47
2022-10-22T06:44:17.738Z,0.40
2022-10-22T06:46:44.708Z,0.40
2022-10-22T06:49:15.929Z,0.30
2022-10-22T06:51:43.003Z,0.40
2022-10-22T06:54:09.880Z,0.60
2022-10-22T06:56:36.782Z,0.60
2022-10-22T06:59:03.999Z,0.28
2022-10-22T07:01:34.840Z,0.52
2022-10-22T07:04:02.508Z,0.40
2022-10-22T07:06:30.459Z,0.63
2022-10-22T07:08:59.587Z,0.60
2022-10-22T07:11:30.429Z,0.50
2022-10-22T07:14:00.136Z,0.80
2022-10-22T07:16:31.160Z,0.40
2022-10-22T07:19:00.550Z,0.80
2022-10-22T07:21:27.559Z,0.88
2022-10-22T07:23:54.901Z,1.05
2022-10-22T07:26:22.411Z,0.88
2022-10-22T07:28:49.422Z,1.15
2022-10-22T07:31:17.912Z,1.33
2022-10-22T07:33:45.390Z,0.40
2022-10-22T07:36:17.812Z,0.98
2022-10-22T07:38:54.233Z,0.60
2022-10-22T07:41:21.155Z,0.80
2022-10-22T07:43:47.929Z,1.00
2022-10-22T07:46:14.814Z,0.50
2022-10-22T07:48:41.698Z,0.65
2022-10-22T07:51:08.986Z,0.70
2022-10-22T07:53:35.917Z,0.60
2022-10-22T07:56:02.795Z,0.60
2022-10-22T07:58:30.138Z,0.43
2022-10-22T08:01:00.756Z,0.55
2022-10-22T08:03:29.169Z,0.50
2022-10-22T08:05:56.530Z,0.50
2022-10-22T08:08:27.051Z,0.50
2022-10-22T08:10:59.852Z,0.60
2022-10-22T08:13:27.582Z,0.40
2022-10-22T08:15:57.355Z,0.50
2022-10-22T08:18:25.259Z,0.70
2022-10-22T08:20:52.418Z,0.52
2022-10-22T08:23:21.205Z,0.70
2022-10-22T08:25:51.107Z,0.70
2022-10-22T08:28:21.151Z,0.70
2022-10-22T08:30:49.244Z,0.70
2022-10-22T08:33:16.269Z,0.68
2022-10-22T08:35:48.225Z,1.10
2022-10-22T08:38:15.112Z,0.80
2022-10-22T08:40:43.150Z,1.10
2022-10-22T08:43:34.625Z,0.95
2022-10-22T08:46:32.120Z,0.98
2022-10-22T08:49:02.203Z,0.80
2022-10-22T08:51:35.089Z,0.75
2022-10-22T08:56:51.031Z,1.20
2022-10-22T08:59:26.859Z,1.00
2022-10-22T09:01:54.674Z,1.00
2022-10-22T09:04:38.391Z,0.90
2022-10-22T09:07:05.203Z,0.90
2022-10-22T09:09:41.201Z,0.80
2022-10-22T09:12:10.756Z,0.88
2022-10-22T09:14:37.701Z,0.77
2022-10-22T09:17:27.143Z,0.95
2022-10-22T09:20:16.438Z,0.80
2022-10-22T09:23:05.537Z,0.80
2022-10-22T09:25:37.048Z,1.00
2022-10-22T09:28:06.137Z,1.05
2022-10-22T09:30:39.131Z,1.10
2022-10-22T09:33:23.942Z,0.80
2022-10-22T09:36:03.308Z,0.85
2022-10-22T09:38:40.519Z,0.88
2022-10-22T09:41:09.150Z,1.02
2022-10-22T09:43:36.311Z,1.10
2022-10-22T09:46:18.855Z,0.90
2022-10-22T09:49:14.777Z,0.90
2022-10-22T09:51:59.660Z,1.35
2022-10-22T09:54:41.994Z,0.60
2022-10-22T09:57:22.315Z,0.80
2022-10-22T09:59:52.603Z,1.10
2022-10-22T10:02:39.159Z,0.80
2022-10-22T10:05:08.409Z,0.80
2022-10-22T10:07:37.122Z,0.85
2022-10-22T10:10:47.345Z,0.52
2022-10-22T10:13:48.205Z,0.73
2022-10-22T10:17:09.942Z,0.73
2022-10-22T10:20:04.343Z,0.85
2022-10-22T10:23:06.481Z,0.80
2022-10-22T10:25:48.661Z,0.60
2022-10-22T10:28:50.672Z,0.70
2022-10-22T10:31:32.416Z,0.85
2022-10-22T10:34:30.354Z,0.67
2022-10-22T10:37:25.759Z,0.70
2022-10-22T10:40:26.255Z,0.60
2022-10-22T10:43:10.855Z,0.60
2022-10-22T10:46:27.463Z,0.80
2022-10-22T10:49:01.092Z,0.80
2022-10-22T10:52:05.933Z,0.70
2022-10-22T10:55:06.708Z,0.80
2022-10-22T10:58:19.473Z,0.77
2022-10-22T11:01:28.898Z,0.50
2022-10-22T11:04:26.515Z,0.90
2022-10-22T11:07:10.757Z,0.82
2022-10-22T11:09:46.363Z,0.95
2022-10-22T11:12:30.720Z,0.93
2022-10-22T11:15:00.294Z,0.63
2022-10-22T11:17:36.795Z,0.80
2022-10-22T11:20:22.499Z,0.98
2022-10-22T11:23:18.323Z,0.80
2022-10-22T11:25:50.716Z,0.88
2022-10-22T11:28:31.770Z,0.73
2022-10-22T11:31:16.195Z,0.70
2022-10-22T11:33:54.613Z,0.60
2022-10-22T11:36:29.375Z,1.65
2022-10-22T11:38:56.838Z,0.70
2022-10-22T11:41:32.628Z,1.23
2022-10-22T11:44:11.294Z,0.55
2022-10-22T11:46:55.822Z,0.60
2022-10-22T11:49:43.786Z,1.15
2022-10-22T11:52:28.082Z,0.77
2022-10-22T11:54:58.385Z,0.80
2022-10-22T11:57:38.055Z,0.75
2022-10-22T12:00:36.121Z,0.93
2022-10-22T12:03:17.111Z,0.90
2022-10-22T12:05:46.260Z,0.88
2022-10-22T12:08:23.522Z,0.68
2022-10-22T12:10:58.459Z,0.63
2022-10-22T12:13:30.224Z,0.60
2022-10-22T12:16:01.972Z,0.67
2022-10-22T12:18:40.792Z,0.90
2022-10-22T12:21:15.809Z,0.73
2022-10-22T12:23:44.948Z,0.93
2022-10-22T12:26:35.976Z,0.70
2022-10-22T12:29:11.464Z,0.90
2022-10-22T12:31:41.815Z,1.00
2022-10-22T12:34:18.722Z,0.98
2022-10-22T12:36:49.021Z,0.60
2022-10-22T12:39:22.842Z,0.60
2022-10-22T12:41:49.794Z,0.75
2022-10-22T12:44:18.203Z,1.20
2022-10-22T12:46:47.516Z,0.80
2022-10-22T12:49:21.894Z,0.80
2022-10-22T12:51:50.057Z,0.70
2022-10-22T12:54:29.533Z,0.75
2022-10-22T12:56:57.340Z,0.70
2022-10-22T12:59:26.178Z,0.77
2022-10-22T13:01:53.925Z,1.33
2022-10-22T13:04:27.073Z,1.08
2022-10-22T13:07:12.225Z,5.05
2022-10-22T13:09:57.174Z,1.20
2022-10-22T13:12:35.438Z,1.13
2022-10-22T13:15:30.137Z,0.60
2022-10-22T13:18:18.669Z,1.27
2022-10-22T13:20:58.973Z,0.80
2022-10-22T13:23:28.473Z,0.90
2022-10-22T13:26:17.787Z,0.70
2022-10-22T13:28:53.410Z,0.68
2022-10-22T13:31:28.811Z,0.70
2022-10-22T13:34:01.403Z,0.60
2022-10-22T13:36:30.439Z,0.60
2022-10-22T13:38:57.850Z,0.50
2022-10-22T13:41:33.099Z,0.82
2022-10-22T13:44:00.026Z,0.60
2022-10-22T13:46:27.596Z,0.82
2022-10-22T13:48:56.469Z,0.50
2022-10-22T13:51:32.183Z,0.80
2022-10-22T13:53:59.098Z,0.80
2022-10-22T13:56:25.969Z,0.85
2022-10-22T13:58:52.852Z,0.52
2022-10-22T14:01:29.317Z,0.65
2022-10-22T14:03:59.251Z,0.82
2022-10-22T14:06:29.909Z,0.60
2022-10-22T14:09:03.672Z,0.65
2022-10-22T14:11:35.199Z,0.80
2022-10-22T14:14:08.795Z,0.70
2022-10-22T14:16:37.664Z,0.88
2022-10-22T14:19:07.590Z,0.73
2022-10-22T14:21:37.874Z,0.60
2022-10-22T14:24:07.200Z,0.82
2022-10-22T14:26:36.377Z,0.70
2022-10-22T14:29:09.187Z,0.70
2022-10-22T14:34:15.678Z,0.70
2022-10-22T14:36:43.920Z,0.80
2022-10-22T14:39:11.682Z,1.00
2022-10-22T14:41:38.766Z,0.98
2022-10-22T14:44:05.677Z,1.30
2022-10-22T14:46:32.699Z,1.10
2022-10-22T14:48:59.583Z,0.80
2022-10-22T14:51:26.416Z,0.90
2022-10-22T14:53:53.238Z,0.80
2022-10-22T14:56:23.215Z,1.15
2022-10-22T14:58:50.915Z,0.68
2022-10-22T15:01:17.842Z,0.63
2022-10-22T15:03:45.217Z,0.65
2022-10-22T15:06:14.455Z,0.73
2022-10-22T15:08:41.418Z,1.05
2022-10-22T15:11:12.390Z,0.65
2022-10-22T15:13:41.299Z,0.97
2022-10-22T15:16:10.800Z,0.90
2022-10-22T15:18:38.277Z,1.25
2022-10-22T15:21:11.933Z,1.27
2022-10-22T15:23:39.571Z,1.20
2022-10-22T15:26:10.825Z,0.90
2022-10-22T15:28:39.395Z,1.20
2022-10-22T15:31:11.221Z,1.00
2022-10-22T15:33:38.164Z,1.05
2022-10-22T15:36:16.557Z,1.02
2022-10-22T15:38:43.325Z,1.52
2022-10-22T15:41:13.381Z,1.83
2022-10-22T15:43:40.881Z,1.15
2022-10-22T15:46:19.477Z,1.02
2022-10-22T15:48:46.773Z,1.60
2022-10-22T15:51:19.425Z,1.40
2022-10-22T15:53:55.938Z,1.42
2022-10-22T15:56:24.112Z,2.80
2022-10-22T15:58:58.182Z,3.28
2022-10-22T16:01:26.262Z,3.00
2022-10-22T16:04:00.003Z,3.13
2022-10-22T16:06:28.764Z,2.60
2022-10-22T16:08:58.550Z,2.55
2022-10-22T16:11:27.115Z,1.98
2022-10-22T16:13:58.334Z,2.20
2022-10-22T16:16:28.308Z,1.38
2022-10-22T16:18:55.368Z,3.25
2022-10-22T16:21:23.912Z,4.35
2022-10-22T16:23:51.098Z,4.20
2022-10-22T16:26:19.724Z,3.97
2022-10-22T16:28:48.201Z,5.78
2022-10-22T16:31:17.964Z,8.20
2022-10-22T16:33:49.228Z,9.70
2022-10-22T16:36:19.878Z,8.77
2022-10-22T16:38:48.468Z,8.00
2022-10-22T16:41:17.725Z,8.02
2022-10-22T16:43:48.565Z,36.35
2022-10-22T16:46:21.173Z,11.15
2022-10-22T16:51:20.115Z,8.23
2022-10-22T16:53:47.308Z,9.70
2022-10-22T16:56:15.894Z,19.02
2022-10-22T16:58:49.799Z,29.42
2022-10-22T17:01:19.285Z,9.77
2022-10-22T17:03:46.797Z,8.98
2022-10-22T17:06:14.417Z,9.63
2022-10-22T17:08:42.253Z,9.40
2022-10-22T17:11:17.631Z,11.18
2022-10-22T17:13:49.642Z,11.70
2022-10-22T17:16:18.986Z,15.32
2022-10-22T17:18:47.589Z,12.27
2022-10-22T17:21:15.978Z,10.63
2022-10-22T17:23:43.137Z,7.47
2022-10-22T17:26:20.831Z,5.30
2022-10-22T17:28:49.024Z,4.18
2022-10-22T17:31:37.231Z,4.28
2022-10-22T17:34:11.288Z,4.15
2022-10-22T17:36:38.281Z,4.40
2022-10-22T17:39:08.026Z,4.75
2022-10-22T17:41:37.252Z,4.40
2022-10-22T17:44:07.063Z,6.07
2022-10-22T17:46:34.050Z,7.63
2022-10-22T17:49:04.438Z,8.70
2022-10-22T17:51:32.169Z,8.18
2022-10-22T17:53:59.530Z,7.35
2022-10-22T17:56:30.169Z,6.40
2022-10-22T17:58:57.327Z,6.93
2022-10-22T18:01:35.075Z,7.18
2022-10-22T18:04:05.803Z,7.53
2022-10-22T18:06:33.916Z,8.50
2022-10-22T18:09:05.991Z,9.18
2022-10-22T18:11:34.367Z,8.57
2022-10-22T18:14:01.178Z,7.93
2022-10-22T18:16:28.183Z,7.30
2022-10-22T18:18:57.674Z,7.93
2022-10-22T18:21:28.973Z,8.95
2022-10-22T18:23:59.405Z,8.63
2022-10-22T18:26:27.094Z,9.05
2022-10-22T18:28:55.298Z,9.02
2022-10-22T18:31:25.242Z,9.27
2022-10-22T18:36:27.200Z,7.82
2022-10-22T18:39:00.758Z,6.95
2022-10-22T18:41:29.178Z,7.32
2022-10-22T18:44:02.425Z,6.75
2022-10-22T18:46:31.322Z,6.78
2022-10-22T18:48:59.182Z,9.35
2022-10-22T18:51:32.818Z,13.77
2022-10-22T18:54:22.231Z,18.40
2022-10-22T18:56:47.322Z,16.67
2022-10-22T18:59:24.836Z,10.95
2022-10-22T19:01:59.289Z,9.65
2022-10-22T19:04:33.071Z,7.95
2022-10-22T19:07:00.093Z,8.75
2022-10-22T19:09:27.066Z,9.32
2022-10-22T19:11:53.968Z,10.10
2022-10-22T19:14:22.102Z,9.35
2022-10-22T19:16:49.763Z,7.85
2022-10-22T19:19:20.643Z,8.23
2022-10-22T19:21:48.846Z,7.38
2022-10-22T19:24:18.188Z,8.18
2022-10-22T19:26:46.072Z,8.32
2022-10-22T19:29:19.790Z,9.73
2022-10-22T19:31:47.838Z,7.88
2022-10-22T19:34:14.861Z,7.30
2022-10-22T19:36:41.739Z,9.45
2022-10-22T19:39:09.000Z,7.85
2022-10-22T19:41:36.274Z,8.88
2022-10-22T19:44:03.222Z,6.93
2022-10-22T19:46:32.604Z,8.98
2022-10-22T19:49:01.993Z,7.53
2022-10-22T19:51:31.135Z,9.07
2022-10-22T19:54:00.831Z,7.25
2022-10-22T19:56:30.235Z,7.50
2022-10-22T19:58:57.835Z,8.68
2022-10-22T20:01:25.603Z,6.90
2022-10-22T20:03:53.579Z,5.22
2022-10-22T20:06:21.928Z,7.18
2022-10-22T20:08:51.079Z,6.78
2022-10-22T20:11:27.690Z,9.00
2022-10-22T20:13:56.547Z,7.80
2022-10-22T20:16:28.507Z,7.25
2022-10-22T20:19:00.295Z,8.30
2022-10-22T20:21:29.866Z,13.65
2022-10-22T20:23:57.618Z,11.77
2022-10-22T20:26:27.961Z,12.13
2022-10-22T20:28:56.787Z,13.10
2022-10-22T20:31:27.005Z,10.35
2022-10-22T20:34:01.088Z,10.18
2022-10-22T20:36:30.169Z,8.90
2022-10-22T20:39:06.202Z,7.40
2022-10-22T20:41:34.294Z,6.20
2022-10-22T20:44:01.531Z,5.68
2022-10-22T20:46:31.108Z,6.97
2022-10-22T20:49:06.320Z,7.38
2022-10-22T20:51:35.056Z,7.15
2022-10-22T20:54:01.987Z,6.68
2022-10-22T20:56:29.259Z,8.95
2022-10-22T20:59:06.998Z,8.60
2022-10-22T21:01:42.810Z,10.48
2022-10-22T21:04:09.951Z,8.48
2022-10-22T21:06:38.946Z,11.68
2022-10-22T21:09:08.068Z,9.30
2022-10-22T21:11:36.890Z,8.88
2022-10-22T21:14:05.835Z,10.77
2022-10-22T21:16:32.769Z,10.43
2022-10-22T21:19:00.299Z,8.15
2022-10-22T21:21:27.587Z,7.80
2022-10-22T21:23:54.408Z,7.18
2022-10-22T21:26:23.447Z,9.88
2022-10-22T21:28:50.467Z,8.30
2022-10-22T21:31:26.142Z,7.80
2022-10-22T21:33:54.225Z,8.10
2022-10-22T21:36:23.686Z,6.80
2022-10-22T21:38:52.069Z,6.03
2022-10-22T21:41:21.971Z,5.93
2022-10-22T21:43:50.031Z,4.75
2022-10-22T21:46:23.484Z,4.82
2022-10-22T21:49:08.672Z,7.07
2022-10-22T21:51:38.257Z,5.38
2022-10-22T21:54:05.951Z,11.65
2022-10-22T21:56:36.612Z,13.93
2022-10-22T21:59:05.704Z,11.77
2022-10-22T22:01:33.193Z,11.50
2022-10-22T22:04:00.450Z,12.82
2022-10-22T22:06:33.018Z,10.98
2022-10-22T22:09:01.902Z,12.18
2022-10-22T22:11:30.011Z,11.73
2022-10-22T22:13:58.459Z,14.48
2022-10-22T22:16:31.873Z,15.32
2022-10-22T22:19:01.863Z,17.92
2022-10-22T22:21:29.678Z,21.38
2022-10-22T22:23:58.058Z,19.65
2022-10-22T22:26:29.751Z,18.23
2022-10-22T22:28:58.736Z,19.63
2022-10-22T22:31:32.476Z,18.27
2022-10-22T22:34:13.629Z,15.85
2022-10-22T22:36:45.329Z,20.10
2022-10-22T22:39:16.143Z,16.73
2022-10-22T22:41:44.085Z,15.18
2022-10-22T22:44:11.507Z,14.60
2022-10-22T22:46:38.874Z,17.98
2022-10-22T22:49:06.643Z,16.73
2022-10-22T22:51:33.663Z,20.67
2022-10-22T22:54:01.921Z,21.48
2022-10-22T22:56:31.792Z,19.25
2022-10-22T22:58:58.768Z,14.07
2022-10-22T23:01:31.049Z,9.15
2022-10-22T23:04:10.907Z,9.00
2022-10-22T23:06:38.266Z,7.93
2022-10-22T23:09:08.550Z,7.80
2022-10-22T23:11:35.872Z,7.95
2022-10-22T23:14:05.122Z,6.55
2022-10-22T23:16:36.595Z,9.38
2022-10-22T23:19:04.890Z,8.98
2022-10-22T23:21:38.805Z,7.82
2022-10-22T23:24:09.607Z,8.15
2022-10-22T23:26:41.447Z,11.07
2022-10-22T23:29:17.438Z,9.75
2022-10-22T23:31:45.339Z,7.55
2022-10-22T23:34:16.720Z,8.18
2022-10-22T23:36:44.317Z,8.38
2022-10-22T23:39:18.837Z,9.30
2022-10-22T23:41:46.384Z,9.70
2022-10-22T23:44:16.191Z,7.45
2022-10-22T23:46:43.008Z,8.20
2022-10-22T23:49:11.215Z,8.77
2022-10-22T23:51:39.885Z,7.32
2022-10-22T23:54:11.474Z,7.70
2022-10-22T23:56:38.416Z,7.63
2022-10-22T23:59:05.554Z,7.03
